Time;durP1;ratioP1;P1;durP2;ratioP2;P2;SDS_P1;SDS_P2;PMS_P1;PMS_P2;Temp;Humidity;BMP_temperature;BMP_pressure;BME280_temperature;BME280_humidity;BME280_pressure;Samples;Min_cycle;Max_cycle;Signal;HPM_P1;HPM_P2
2023/01/12 00:01:11;;;;;;;43.70;26.40;;;;;;;4.74;100.00;100443.05;105058;1258;97982;-76
2023/01/12 00:03:57;;;;;;;42.50;24.10;;;;;;;4.75;100.00;100440.95;105085;1264;101489;-75
2023/01/12 00:06:43;;;;;;;46.80;25.60;;;;;;;4.75;100.00;100439.16;105106;1258;99240;-75
2023/01/12 00:09:28;;;;;;;46.20;26.50;;;;;;;4.77;100.00;100442.94;104947;1259;99131;-75
2023/01/12 00:12:13;;;;;;;51.70;27.30;;;;;;;4.78;100.00;100446.46;105145;1263;97965;-75
2023/01/12 00:14:59;;;;;;;49.00;26.10;;;;;;;4.78;100.00;100447.69;105082;1263;98489;-75
2023/01/12 00:17:44;;;;;;;50.10;26.70;;;;;;;4.78;100.00;100451.39;105043;1262;102646;-74
2023/01/12 00:20:30;;;;;;;42.80;23.60;;;;;;;4.80;100.00;100451.98;105016;1256;99098;-75
2023/01/12 00:23:15;;;;;;;45.70;24.80;;;;;;;4.81;100.00;100454.68;105044;1263;98056;-74
2023/01/12 00:26:01;;;;;;;45.40;24.30;;;;;;;4.82;100.00;100451.44;105096;1257;97945;-75
2023/01/12 00:28:47;;;;;;;52.10;25.40;;;;;;;4.83;100.00;100450.28;105107;1262;98481;-75
2023/01/12 00:31:32;;;;;;;45.30;24.80;;;;;;;4.83;100.00;100453.20;105040;1261;102593;-75
2023/01/12 00:34:18;;;;;;;43.60;24.80;;;;;;;4.85;100.00;100454.14;105107;1258;99674;-75
2023/01/12 00:37:03;;;;;;;48.50;26.10;;;;;;;4.85;100.00;100456.23;105029;1261;98766;-75
2023/01/12 00:39:49;;;;;;;44.60;24.30;;;;;;;4.84;100.00;100459.85;104994;1264;98101;-76
2023/01/12 00:45:38;;;;;;;43.30;23.50;;;;;;;4.84;100.00;100468.73;105066;1258;101354;-75
2023/01/12 00:48:23;;;;;;;43.10;23.40;;;;;;;4.85;100.00;100468.60;105109;1261;100601;-75
2023/01/12 00:51:09;;;;;;;42.10;23.30;;;;;;;4.86;100.00;100469.21;105076;1262;98789;-75
2023/01/12 00:53:54;;;;;;;42.80;23.40;;;;;;;4.87;100.00;100462.92;105005;1257;97971;-76
2023/01/12 00:56:40;;;;;;;45.30;24.90;;;;;;;4.88;100.00;100461.02;105142;1259;97850;-77
2023/01/12 00:59:26;;;;;;;43.30;24.00;;;;;;;4.91;100.00;100466.59;105274;1263;101420;-75
2023/01/12 01:02:12;;;;;;;41.40;23.20;;;;;;;4.93;100.00;100461.97;105072;1261;100419;-75
2023/01/12 01:04:58;;;;;;;40.30;23.60;;;;;;;4.95;100.00;100461.54;105169;1257;99291;-75
2023/01/12 01:07:46;;;;;;;38.80;22.50;;;;;;;4.96;100.00;100462.19;105165;1263;98036;-76
2023/01/12 01:10:31;;;;;;;46.20;24.60;;;;;;;4.97;100.00;100465.59;105135;1259;98527;-74
2023/01/12 01:13:16;;;;;;;40.60;22.90;;;;;;;5.00;100.00;100463.15;105273;1261;101334;-75
2023/01/12 01:16:03;;;;;;;40.00;22.80;;;;;;;5.03;100.00;100458.66;105306;1264;99095;-76
2023/01/12 01:18:49;;;;;;;38.20;23.70;;;;;;;5.03;100.00;100455.81;105015;1259;98209;-76
2023/01/12 01:21:34;;;;;;;39.80;23.00;;;;;;;5.05;100.00;100459.61;105281;1259;98066;-75
2023/01/12 01:24:20;;;;;;;37.80;22.70;;;;;;;5.08;100.00;100460.77;105316;1261;97962;-74
2023/01/12 01:27:05;;;;;;;42.10;23.80;;;;;;;5.10;100.00;100458.09;105151;1259;102622;-75
2023/01/12 01:29:51;;;;;;;36.70;21.80;;;;;;;5.12;100.00;100458.94;105068;1258;100372;-74
2023/01/12 01:32:36;;;;;;;35.80;21.70;;;;;;;5.12;100.00;100460.16;105166;1263;98976;-75
2023/01/12 01:35:22;;;;;;;35.90;22.90;;;;;;;5.13;100.00;100460.75;105165;1264;98109;-76
2023/01/12 01:38:08;;;;;;;36.60;21.30;;;;;;;5.16;100.00;100460.28;105385;1258;99363;-75
2023/01/12 01:40:54;;;;;;;36.50;20.20;;;;;;;5.20;100.00;100456.73;105374;1258;101297;-75
2023/01/12 01:43:52;;;;;;;33.20;20.30;;;;;;;5.22;100.00;100452.75;105354;1258;100271;-76
2023/01/12 01:46:51;;;;;;;31.40;20.40;;;;;;;5.24;100.00;100457.98;105118;1264;98100;-75
2023/01/12 01:49:45;;;;;;;29.80;18.60;;;;;;;5.27;100.00;100465.20;105299;1258;98836;-75
2023/01/12 01:52:34;;;;;;;33.50;18.70;;;;;;;5.29;100.00;100469.93;105086;1257;98503;-75
2023/01/12 01:55:28;;;;;;;32.10;19.10;;;;;;;5.30;100.00;100471.33;105126;1260;102579;-75
2023/01/12 01:58:26;;;;;;;29.90;18.00;;;;;;;5.33;100.00;100469.89;105208;1259;99953;-72
2023/01/12 02:01:11;;;;;;;25.70;17.40;;;;;;;5.34;100.00;100469.75;105193;1258;98449;-76
2023/01/12 02:03:59;;;;;;;34.80;19.40;;;;;;;5.36;100.00;100471.34;105266;1257;98474;-76
2023/01/12 02:06:45;;;;;;;29.00;18.40;;;;;;;5.38;100.00;100469.86;105108;1259;98474;-75
2023/01/12 02:09:31;;;;;;;29.20;18.40;;;;;;;5.40;100.00;100468.60;105154;1259;101317;-76
2023/01/12 02:18:38;;;;;;;26.50;16.90;;;;;;;5.47;100.00;100464.63;105030;1259;97962;-76
2023/01/12 02:21:42;;;;;;;28.10;18.00;;;;;;;5.50;100.00;100468.83;105117;1259;98414;-75
2023/01/12 02:24:31;;;;;;;29.50;17.20;;;;;;;5.51;100.00;100470.67;105188;1257;101367;-74
2023/01/12 02:27:21;;;;;;;26.00;16.90;;;;;;;5.52;100.00;100475.50;105103;1258;99097;-74
2023/01/12 02:30:15;;;;;;;26.10;16.10;;;;;;;5.53;100.00;100475.80;105177;1263;97984;-76
2023/01/12 02:33:31;;;;;;;24.10;15.70;;;;;;;5.54;100.00;100483.48;105062;1261;98057;-75
2023/01/12 02:36:44;;;;;;;25.80;16.60;;;;;;;5.55;100.00;100484.94;105164;1257;98394;-76
2023/01/12 02:39:58;;;;;;;27.30;17.00;;;;;;;5.57;100.00;100480.16;105099;1263;101367;-78
2023/01/12 02:43:23;;;;;;;27.50;16.90;;;;;;;5.59;100.00;100478.91;105343;1261;100132;-75
2023/01/12 02:46:17;;;;;;;27.00;16.80;;;;;;;5.61;100.00;100485.06;105114;1262;97999;-76
2023/01/12 02:49:16;;;;;;;25.40;15.50;;;;;;;5.61;100.00;100491.02;105055;1258;98053;-79
2023/01/12 02:52:08;;;;;;;26.50;16.50;;;;;;;5.63;100.00;100497.94;105178;1257;99436;-77
2023/01/12 02:54:55;;;;;;;25.40;16.30;;;;;;;5.65;100.00;100501.61;105085;1259;102626;-75
2023/01/12 02:57:42;;;;;;;21.80;15.60;;;;;;;5.67;100.00;100502.45;105149;1258;99069;-75
2023/01/12 03:00:28;;;;;;;27.40;17.80;;;;;;;5.69;100.00;100504.71;105063;1261;97955;-75
2023/01/12 03:03:16;;;;;;;22.80;15.30;;;;;;;5.73;100.00;100512.51;105197;1264;97975;-75
2023/01/12 03:06:03;;;;;;;23.90;16.10;;;;;;;5.74;100.00;100509.91;105152;1258;98478;-76
2023/01/12 03:08:50;;;;;;;25.20;16.60;;;;;;;5.75;100.00;100508.20;105119;1257;101995;-76
2023/01/12 03:11:39;;;;;;;25.10;16.20;;;;;;;5.76;100.00;100509.86;104990;1257;99071;-76
2023/01/12 03:14:28;;;;;;;23.90;16.50;;;;;;;5.77;100.00;100507.43;105054;1262;100380;-77
2023/01/12 03:18:02;;;;;;;26.10;17.00;;;;;;;5.80;100.00;100509.98;105289;1258;97874;-76
2023/01/12 03:20:54;;;;;;;27.90;16.30;;;;;;;5.82;100.00;100513.80;105228;1261;99663;-77
2023/01/12 03:23:48;;;;;;;22.70;16.10;;;;;;;5.84;100.00;100512.55;105427;1257;102601;-77
2023/01/12 03:26:39;;;;;;;29.10;16.80;;;;;;;5.87;100.00;100512.29;105256;1257;100847;-76
2023/01/12 03:29:29;;;;;;;25.40;16.70;;;;;;;5.89;100.00;100511.56;105493;1261;98519;-76
2023/01/12 03:32:16;;;;;;;25.40;17.80;;;;;;;5.90;100.00;100514.92;105262;1257;98923;-76
2023/01/12 03:35:04;;;;;;;26.20;17.30;;;;;;;5.92;100.00;100519.11;105357;1262;97987;-76
2023/01/12 03:37:55;;;;;;;25.90;17.30;;;;;;;5.95;100.00;100518.86;105966;1258;102792;-75
2023/01/12 03:40:48;;;;;;;29.10;18.00;;;;;;;5.98;100.00;100522.05;105470;1263;102059;-76
2023/01/12 03:43:42;;;;;;;27.00;17.40;;;;;;;6.03;100.00;100520.30;105270;1264;99048;-76
2023/01/12 03:46:38;;;;;;;27.20;17.30;;;;;;;6.06;100.00;100518.96;105273;1257;97898;-75
2023/01/12 03:49:27;;;;;;;26.70;16.90;;;;;;;6.08;100.00;100521.52;105502;1264;98592;-76
2023/01/12 03:52:17;;;;;;;23.90;17.50;;;;;;;6.10;100.00;100525.73;105252;1263;102087;-76
2023/01/12 03:55:08;;;;;;;26.90;17.70;;;;;;;6.13;100.00;100527.27;105283;1263;99324;-76
2023/01/12 03:58:03;;;;;;;27.60;17.00;;;;;;;6.15;100.00;100527.94;105181;1257;97944;-75
2023/01/12 04:00:48;;;;;;;25.40;17.90;;;;;;;6.17;100.00;100532.80;105290;1257;98089;-76
2023/01/12 04:03:34;;;;;;;28.50;18.80;;;;;;;6.19;100.00;100532.44;105150;1261;98487;-76
2023/01/12 04:06:19;;;;;;;24.10;16.40;;;;;;;6.21;100.00;100533.45;105120;1259;102414;-77
2023/01/12 04:09:05;;;;;;;23.80;18.00;;;;;;;6.24;100.00;100539.86;105325;1262;100365;-76
2023/01/12 04:12:09;;;;;;;26.70;17.50;;;;;;;6.26;100.00;100542.21;105478;1261;98967;-76
2023/01/12 04:14:55;;;;;;;23.70;17.40;;;;;;;6.25;100.00;100545.10;105331;1261;97969;-76
2023/01/12 04:17:41;;;;;;;26.80;18.50;;;;;;;6.26;100.00;100539.70;105372;1261;97993;-77
2023/01/12 04:20:26;;;;;;;24.80;18.70;;;;;;;6.28;100.00;100540.39;105303;1263;102492;-76
2023/01/12 04:23:12;;;;;;;24.50;17.50;;;;;;;6.30;100.00;100544.29;105411;1261;99125;-76
2023/01/12 04:25:57;;;;;;;26.80;18.00;;;;;;;6.31;100.00;100542.76;105232;1261;99020;-76
2023/01/12 04:28:43;;;;;;;26.60;17.90;;;;;;;6.33;100.00;100542.69;105150;1259;97961;-76
2023/01/12 04:31:28;;;;;;;27.20;17.40;;;;;;;6.35;100.00;100540.70;105158;1257;98418;-76
2023/01/12 04:34:14;;;;;;;23.30;15.80;;;;;;;6.37;100.00;100542.31;105092;1261;101335;-76
2023/01/12 04:37:01;;;;;;;26.40;17.90;;;;;;;6.39;100.00;100543.33;105119;1263;99086;-77
2023/01/12 04:39:46;;;;;;;26.80;18.80;;;;;;;6.40;100.00;100540.89;104970;1264;99418;-76
2023/01/12 04:45:38;;;;;;;28.30;18.70;;;;;;;6.44;100.00;100535.28;105082;1263;97975;-77
2023/01/12 04:48:24;;;;;;;27.30;18.40;;;;;;;6.45;100.00;100538.92;105128;1258;102006;-76
2023/01/12 04:51:10;;;;;;;25.20;17.90;;;;;;;6.46;100.00;100541.27;105171;1259;100961;-76
2023/01/12 04:53:56;;;;;;;23.90;17.40;;;;;;;6.47;100.00;100542.48;105072;1261;99032;-75
2023/01/12 04:56:41;;;;;;;27.40;18.50;;;;;;;6.48;100.00;100545.73;105023;1264;98019;-76
2023/01/12 04:59:28;;;;;;;28.60;19.10;;;;;;;6.49;100.00;100544.75;105147;1257;97850;-75
2023/01/12 05:02:13;;;;;;;23.70;17.20;;;;;;;6.49;100.00;100543.27;105113;1259;102788;-76
2023/01/12 05:04:59;;;;;;;27.30;19.30;;;;;;;6.49;100.00;100548.08;105018;1262;100304;-76
2023/01/12 05:10:53;;;;;;;26.60;17.60;;;;;;;6.49;100.00;100557.62;105074;1263;99343;-75
2023/01/12 05:13:39;;;;;;;26.90;18.90;;;;;;;6.49;100.00;100560.85;104959;1261;98049;-76
2023/01/12 05:16:24;;;;;;;30.70;19.90;;;;;;;6.50;100.00;100563.93;105227;1259;101332;-75
2023/01/12 05:19:10;;;;;;;27.50;18.20;;;;;;;6.50;100.00;100564.59;105064;1261;100397;-76
2023/01/12 05:21:56;;;;;;;28.90;17.90;;;;;;;6.51;100.00;100561.54;105140;1265;98452;-77
2023/01/12 05:24:41;;;;;;;27.50;18.30;;;;;;;6.52;100.00;100562.61;105093;1261;99243;-76
2023/01/12 05:27:27;;;;;;;29.10;18.40;;;;;;;6.54;100.00;100564.59;105289;1262;99133;-77
2023/01/12 05:30:13;;;;;;;27.20;18.10;;;;;;;6.55;100.00;100570.88;105091;1259;101362;-76
2023/01/12 05:32:58;;;;;;;27.50;18.50;;;;;;;6.56;100.00;100568.27;105100;1261;100440;-76
2023/01/12 05:35:45;;;;;;;28.30;18.80;;;;;;;6.57;100.00;100562.30;105108;1256;99491;-76
2023/01/12 05:38:30;;;;;;;33.80;20.30;;;;;;;6.59;100.00;100562.64;105067;1262;97948;-78
2023/01/12 05:41:16;;;;;;;29.70;20.00;;;;;;;6.61;100.00;100563.84;105323;1263;99554;-76
2023/01/12 05:44:02;;;;;;;29.40;19.50;;;;;;;6.63;100.00;100566.41;105218;1259;101396;-75
2023/01/12 05:46:47;;;;;;;35.30;20.30;;;;;;;6.63;100.00;100570.30;105268;1263;100483;-75
2023/01/12 05:49:33;;;;;;;31.60;20.70;;;;;;;6.63;100.00;100572.60;105284;1258;100195;-76
2023/01/12 05:52:18;;;;;;;33.60;19.20;;;;;;;6.65;100.00;100575.23;105188;1258;99131;-76
2023/01/12 05:55:04;;;;;;;29.20;19.70;;;;;;;6.67;100.00;100573.23;105175;1261;98452;-78
2023/01/12 05:57:50;;;;;;;28.80;19.20;;;;;;;6.69;100.00;100574.84;105010;1264;101383;-77
2023/01/12 06:00:35;;;;;;;26.00;18.10;;;;;;;6.70;100.00;100571.58;105050;1262;100984;-77
2023/01/12 06:03:21;;;;;;;31.10;20.70;;;;;;;6.69;100.00;100570.95;105070;1261;98989;-76
2023/01/12 06:06:06;;;;;;;34.60;20.80;;;;;;;6.70;100.00;100569.56;105005;1258;97944;-77
2023/01/12 06:08:53;;;;;;;31.10;20.00;;;;;;;6.70;100.00;100575.02;105073;1262;97993;-76
2023/01/12 06:14:43;;;;;;;27.40;18.70;;;;;;;6.71;100.00;100574.32;105054;1262;99121;-77
2023/01/12 06:17:29;;;;;;;34.70;21.10;;;;;;;6.72;100.00;100569.92;105005;1257;97964;-78
2023/01/12 06:20:16;;;;;;;31.40;20.40;;;;;;;6.73;100.00;100567.88;104986;1259;98580;-75
2023/01/12 06:23:03;;;;;;;31.90;20.90;;;;;;;6.74;100.00;100572.20;104976;1256;97879;-75
2023/01/12 06:25:49;;;;;;;34.10;21.70;;;;;;;6.75;100.00;100570.33;105104;1259;101400;-77
2023/01/12 06:28:36;;;;;;;33.10;20.70;;;;;;;6.76;100.00;100569.83;105089;1259;100555;-77
2023/01/12 06:31:21;;;;;;;37.70;21.20;;;;;;;6.78;100.00;100572.33;105035;1261;99052;-75
2023/01/12 06:34:07;;;;;;;32.90;20.50;;;;;;;6.79;100.00;100575.59;105110;1258;97964;-75
2023/01/12 06:36:53;;;;;;;32.50;21.60;;;;;;;6.79;100.00;100580.99;105140;1258;97924;-75
2023/01/12 06:39:38;;;;;;;33.80;21.30;;;;;;;6.80;100.00;100587.79;105062;1261;101315;-76
2023/01/12 06:42:27;;;;;;;35.00;21.60;;;;;;;6.81;100.00;100587.55;105068;1261;99159;-75
2023/01/12 06:45:13;;;;;;;34.10;20.20;;;;;;;6.82;100.00;100586.55;105056;1259;98388;-75
2023/01/12 06:47:58;;;;;;;33.70;22.20;;;;;;;6.82;100.00;100590.79;105063;1264;98049;-76
2023/01/12 06:50:43;;;;;;;36.70;22.90;;;;;;;6.83;100.00;100592.52;105114;1263;98500;-76
2023/01/12 06:53:29;;;;;;;36.80;23.00;;;;;;;6.84;100.00;100597.05;105021;1263;102696;-75
2023/01/12 06:56:15;;;;;;;39.30;23.20;;;;;;;6.85;100.00;100600.08;104999;1264;99093;-77
2023/01/12 06:59:00;;;;;;;35.20;21.00;;;;;;;6.85;100.00;100596.69;105010;1263;99002;-76
2023/01/12 07:01:46;;;;;;;36.40;23.00;;;;;;;6.84;100.00;100599.64;105054;1259;98051;-75
2023/01/12 07:04:31;;;;;;;34.30;20.10;;;;;;;6.84;100.00;100600.00;105006;1262;99262;-75
2023/01/12 07:07:17;;;;;;;33.70;22.00;;;;;;;6.84;100.00;100610.41;105102;1259;101428;-75
2023/01/12 07:10:05;;;;;;;32.20;21.90;;;;;;;6.84;100.00;100611.69;105032;1262;100338;-75
2023/01/12 07:12:50;;;;;;;30.20;20.50;;;;;;;6.84;100.00;100614.92;104876;1264;98288;-76
2023/01/12 07:15:36;;;;;;;33.00;22.50;;;;;;;6.83;100.00;100622.27;105043;1259;98020;-75
2023/01/12 07:18:21;;;;;;;38.20;23.30;;;;;;;6.82;100.00;100620.27;104982;1264;98488;-77
2023/01/12 07:21:08;;;;;;;38.50;22.10;;;;;;;6.81;100.00;100629.05;105065;1257;101333;-78
2023/01/12 07:23:53;;;;;;;35.30;23.10;;;;;;;6.80;100.00;100635.60;105261;1262;99148;-77
2023/01/12 07:26:39;;;;;;;36.80;23.50;;;;;;;6.80;100.00;100633.31;105214;1257;99340;-77
2023/01/12 07:29:25;;;;;;;36.40;21.60;;;;;;;6.80;100.00;100637.05;105223;1262;97960;-77
2023/01/12 07:32:10;;;;;;;37.20;22.00;;;;;;;6.80;100.00;100646.46;105303;1257;97851;-77
2023/01/12 07:34:56;;;;;;;31.40;21.10;;;;;;;6.80;100.00;100650.11;105327;1265;101444;-76
2023/01/12 07:37:49;;;;;;;31.90;21.10;;;;;;;6.80;100.00;100655.61;105361;1261;99049;-77
2023/01/12 07:40:35;;;;;;;33.50;20.90;;;;;;;6.81;100.00;100657.98;105089;1259;98763;-75
2023/01/12 07:43:22;;;;;;;37.60;21.10;;;;;;;6.83;100.00;100658.52;104974;1261;97946;-75
2023/01/12 07:46:07;;;;;;;35.40;20.50;;;;;;;6.84;100.00;100658.41;105094;1262;100719;-75
2023/01/12 07:48:52;;;;;;;37.00;22.10;;;;;;;6.85;100.00;100659.22;105082;1261;102950;-74
2023/01/12 07:51:38;;;;;;;37.60;22.40;;;;;;;6.85;100.00;100656.33;105001;1261;99859;-77
2023/01/12 07:54:24;;;;;;;41.10;22.00;;;;;;;6.87;100.00;100656.66;105142;1261;98472;-76
2023/01/12 07:57:10;;;;;;;32.00;19.70;;;;;;;6.90;100.00;100659.16;105059;1261;98360;-77
2023/01/12 07:59:56;;;;;;;58.80;37.60;;;;;;;6.90;100.00;100651.50;105060;1261;99601;-76
2023/01/12 08:02:41;;;;;;;37.90;24.60;;;;;;;6.88;100.00;100642.71;105042;1259;103621;-76
2023/01/12 08:05:28;;;;;;;32.90;21.50;;;;;;;6.86;100.00;100644.17;105117;1261;99058;-77
2023/01/12 08:08:13;;;;;;;33.50;21.90;;;;;;;6.84;100.00;100645.30;105169;1258;98990;-75
2023/01/12 08:11:07;;;;;;;36.80;22.70;;;;;;;6.81;100.00;100644.35;105089;1259;98020;-76
2023/01/12 08:13:55;;;;;;;30.30;20.30;;;;;;;6.79;100.00;100643.45;105480;1261;98463;-78
2023/01/12 08:16:44;;;;;;;70.00;47.70;;;;;;;6.78;100.00;100646.63;106051;1262;102365;-81
2023/01/12 08:19:41;;;;;;;74.40;47.20;;;;;;;6.77;100.00;100651.00;105774;1261;99199;-78
2023/01/12 08:22:32;;;;;;;38.50;22.40;;;;;;;6.78;100.00;100652.53;105484;1257;98055;-83
2023/01/12 08:25:27;;;;;;;36.20;23.60;;;;;;;6.80;100.00;100651.23;105471;1262;97949;-83
2023/01/12 08:28:18;;;;;;;37.80;22.80;;;;;;;6.84;100.00;100649.66;106261;1257;97984;-83
2023/01/12 08:31:08;;;;;;;34.80;21.90;;;;;;;6.89;100.00;100653.97;105772;1259;101919;-79
2023/01/12 08:33:54;;;;;;;31.70;19.60;;;;;;;6.92;100.00;100650.48;105354;1258;100344;-77
2023/01/12 08:36:41;;;;;;;35.50;19.80;;;;;;;6.94;100.00;100651.48;105604;1262;98143;-75
2023/01/12 08:39:28;;;;;;;31.70;19.20;;;;;;;6.96;100.00;100648.23;105096;1259;99244;-77
2023/01/12 08:42:14;;;;;;;37.30;24.10;;;;;;;6.99;100.00;100644.84;105035;1264;98391;-76
2023/01/12 08:45:00;;;;;;;28.50;21.90;;;;;;;7.03;100.00;100649.95;104962;1262;101301;-76
2023/01/12 08:47:45;;;;;;;34.10;24.70;;;;;;;7.06;100.00;100650.55;105042;1261;100350;-72
2023/01/12 08:50:30;;;;;;;33.10;22.30;;;;;;;7.09;100.00;100649.76;105070;1262;99573;-74
2023/01/12 08:53:16;;;;;;;32.00;19.50;;;;;;;7.10;100.00;100646.96;105001;1259;104291;-74
2023/01/12 08:56:02;;;;;;;34.10;21.10;;;;;;;7.11;100.00;100642.07;105069;1264;98213;-73
2023/01/12 08:58:47;;;;;;;33.30;20.90;;;;;;;7.11;100.00;100642.77;105073;1257;103187;-74
2023/01/12 09:01:34;;;;;;;27.80;18.30;;;;;;;7.10;100.00;100644.23;105047;1261;100168;-74
2023/01/12 09:04:20;;;;;;;33.90;19.70;;;;;;;7.11;100.00;100646.27;105066;1261;99007;-75
2023/01/12 09:07:06;;;;;;;30.70;18.50;;;;;;;7.13;100.00;100645.38;104966;1259;97971;-75
2023/01/12 09:09:52;;;;;;;28.00;19.70;;;;;;;7.14;100.00;100648.68;105143;1261;98038;-74
2023/01/12 09:12:37;;;;;;;34.30;19.90;;;;;;;7.15;100.00;100649.98;105304;1261;103549;-74
2023/01/12 09:15:23;;;;;;;30.00;20.10;;;;;;;7.18;100.00;100648.41;105065;1259;100475;-75
2023/01/12 09:18:08;;;;;;;32.30;21.00;;;;;;;7.22;100.00;100645.50;105008;1265;99251;-75
2023/01/12 09:21:02;;;;;;;33.20;21.40;;;;;;;7.24;100.00;100642.00;105002;1261;97952;-74
2023/01/12 09:23:49;;;;;;;38.80;25.00;;;;;;;7.28;100.00;100643.16;105144;1264;98484;-74
2023/01/12 09:26:42;;;;;;;28.60;18.60;;;;;;;7.31;100.00;100639.80;105016;1262;102545;-77
2023/01/12 09:29:27;;;;;;;29.00;17.00;;;;;;;7.34;100.00;100640.24;104999;1258;101475;-77
2023/01/12 09:32:12;;;;;;;41.70;25.20;;;;;;;7.36;100.00;100633.39;104924;1264;99174;-76
2023/01/12 09:34:58;;;;;;;30.20;17.30;;;;;;;7.40;100.00;100632.30;104987;1271;97962;-75
2023/01/12 09:37:45;;;;;;;27.20;15.60;;;;;;;7.45;100.00;100631.48;105012;1263;97923;-76
2023/01/12 09:40:30;;;;;;;26.80;16.20;;;;;;;7.48;100.00;100633.73;105127;1264;101342;-75
2023/01/12 09:49:49;;;;;;;28.50;14.10;;;;;;;7.63;100.00;100626.40;105114;1267;98097;-75
2023/01/12 09:52:49;;;;;;;24.40;13.70;;;;;;;7.67;100.00;100621.50;105332;1259;99123;-75
2023/01/12 09:56:07;;;;;;;26.70;14.50;;;;;;;7.72;100.00;100623.46;105184;1262;102610;-74
2023/01/12 09:59:17;;;;;;;25.70;15.30;;;;;;;7.77;100.00;100617.69;105331;1263;100319;-73
2023/01/12 10:02:08;;;;;;;41.80;28.70;;;;;;;7.81;100.00;100615.86;104963;1262;99143;-74
2023/01/12 10:04:55;;;;;;;26.20;16.60;;;;;;;7.84;100.00;100611.42;105067;1257;97997;-75
2023/01/12 10:07:41;;;;;;;22.70;15.70;;;;;;;7.88;100.00;100609.24;106851;1260;98239;-74
2023/01/12 10:10:27;;;;;;;24.50;13.90;;;;;;;7.91;100.00;100611.58;105084;1261;102601;-74
2023/01/12 10:13:13;;;;;;;18.60;11.00;;;;;;;7.95;100.00;100609.54;105052;1263;99163;-74
2023/01/12 10:16:06;;;;;;;18.50;12.10;;;;;;;7.97;100.00;100608.20;105417;1261;99113;-74
2023/01/12 10:18:57;;;;;;;18.80;11.10;;;;;;;8.00;100.00;100600.36;105243;1261;97963;-75
2023/01/12 10:21:43;;;;;;;21.80;10.70;;;;;;;8.02;100.00;100595.85;105141;1263;99252;-75
2023/01/12 10:24:28;;;;;;;19.20;14.30;;;;;;;8.06;100.00;100601.30;105054;1264;101458;-74
2023/01/12 10:27:15;;;;;;;23.00;14.20;;;;;;;8.10;100.00;100600.87;105118;1263;100581;-74
2023/01/12 10:30:07;;;;;;;17.10;10.70;;;;;;;8.13;100.00;100597.48;104990;1259;97968;-75
2023/01/12 10:32:53;;;;;;;21.10;12.50;;;;;;;8.17;100.00;100595.75;105123;1263;98083;-75
2023/01/12 10:36:01;;;;;;;19.70;10.10;;;;;;;8.22;100.00;100594.90;104975;1264;99365;-74
2023/01/12 10:38:59;;;;;;;21.40;10.90;;;;;;;8.26;100.00;100587.21;105039;1262;101291;-74
2023/01/12 10:41:45;;;;;;;21.40;11.60;;;;;;;8.30;100.00;100583.83;105073;1264;100451;-75
2023/01/12 10:44:30;;;;;;;14.80;9.50;;;;;;;8.34;100.00;100576.77;105001;1259;98970;-75
2023/01/12 10:47:17;;;;;;;17.90;9.50;;;;;;;8.38;100.00;100576.69;105270;1264;97964;-76
2023/01/12 10:50:34;;;;;;;20.30;9.40;;;;;;;8.40;100.00;100571.27;105004;1264;98090;-74
2023/01/12 10:53:19;;;;;;;18.70;11.00;;;;;;;8.43;100.00;100569.40;105752;1261;101344;-74
2023/01/12 10:56:39;;;;;;;19.80;11.70;;;;;;;8.45;100.00;100566.63;105102;1261;99082;-75
2023/01/12 10:59:32;;;;;;;24.30;16.60;;;;;;;8.48;100.00;100562.57;105173;1261;98047;-75
2023/01/12 11:02:18;;;;;;;17.10;10.30;;;;;;;8.51;100.00;100554.39;104906;1260;98059;-74
2023/01/12 11:05:33;;;;;;;20.00;10.70;;;;;;;8.53;100.00;100550.52;105082;1271;98039;-74
2023/01/12 11:08:26;;;;;;;22.60;13.20;;;;;;;8.57;100.00;100547.70;105001;1263;101341;-77
2023/01/12 11:11:24;;;;;;;18.50;9.20;;;;;;;8.60;100.00;100543.95;104955;1264;100060;-75
2023/01/12 11:14:24;;;;;;;22.90;13.20;;;;;;;8.63;100.00;100534.57;105280;1261;98573;-75
2023/01/12 11:17:35;;;;;;;19.80;10.80;;;;;;;8.64;100.00;100541.33;105099;1263;97985;-76
2023/01/12 11:20:40;;;;;;;;;;;;;;;8.65;100.00;100539.96;105285;1263;97943;-74
2023/01/12 11:23:37;;;;;;;14.10;9.50;;;;;;;8.65;100.00;100534.09;105103;1259;101492;-75
2023/01/12 11:26:32;;;;;;;17.80;9.60;;;;;;;8.66;99.94;100526.16;105060;1267;99260;-74
2023/01/12 11:29:20;;;;;;;13.80;8.80;;;;;;;8.67;99.74;100519.84;104988;1263;97869;-76
2023/01/12 11:32:17;;;;;;;12.90;8.60;;;;;;;8.68;99.90;100516.14;105044;1261;97888;-76
2023/01/12 11:35:05;;;;;;;30.90;20.80;;;;;;;8.71;99.80;100520.23;105114;1263;98093;-75
2023/01/12 11:37:56;;;;;;;135.00;65.60;;;;;;;8.72;99.49;100518.31;105143;1264;101329;-75
2023/01/12 11:40:44;;;;;;;33.00;20.80;;;;;;;8.74;99.04;100516.70;105140;1261;100332;-73
2023/01/12 11:43:48;;;;;;;23.90;11.90;;;;;;;8.76;99.06;100509.10;105009;1264;99300;-75
2023/01/12 11:46:41;;;;;;;25.80;16.70;;;;;;;8.78;98.55;100503.77;105083;1263;99247;-75
2023/01/12 11:49:31;;;;;;;13.10;9.40;;;;;;;8.79;98.47;100505.39;105506;1263;97973;-74
2023/01/12 11:52:16;;;;;;;18.10;10.10;;;;;;;8.80;98.10;100508.15;105153;1264;101445;-74
2023/01/12 11:55:02;;;;;;;14.60;9.80;;;;;;;8.81;97.74;100507.17;105050;1262;100170;-75
2023/01/12 11:58:16;;;;;;;15.60;9.50;;;;;;;8.82;97.53;100503.05;104999;1262;98999;-76
2023/01/12 12:01:25;;;;;;;22.10;14.20;;;;;;;8.83;97.23;100498.52;105026;1264;98056;-75
2023/01/12 12:04:33;;;;;;;16.60;10.70;;;;;;;8.83;96.80;100495.51;105050;1264;98506;-74
2023/01/12 12:07:25;;;;;;;13.40;7.70;;;;;;;8.85;96.93;100496.20;105027;1264;102605;-75
2023/01/12 12:10:32;;;;;;;12.00;9.40;;;;;;;8.91;97.44;100495.08;105102;1261;99114;-76
2023/01/12 12:13:27;;;;;;;20.60;13.50;;;;;;;8.95;96.79;100494.59;105020;1264;97965;-75
2023/01/12 12:16:19;;;;;;;16.00;8.40;;;;;;;8.98;96.53;100491.71;105060;1264;97967;-73
2023/01/12 12:19:31;;;;;;;24.90;19.30;;;;;;;9.02;96.26;100490.79;105071;1263;98382;-75
2023/01/12 12:22:45;;;;;;;18.10;11.30;;;;;;;9.03;96.10;100487.11;105057;1260;102680;-75
2023/01/12 12:25:52;;;;;;;14.80;9.70;;;;;;;9.04;95.86;100483.89;105663;1261;99071;-78
2023/01/12 12:28:59;;;;;;;19.40;13.30;;;;;;;9.04;95.50;100482.17;106887;1260;99436;-78
2023/01/12 12:32:07;;;;;;;16.80;9.80;;;;;;;9.05;95.43;100482.17;105130;1261;97997;-77
2023/01/12 12:35:22;;;;;;;33.20;23.40;;;;;;;9.04;95.06;100481.39;105130;1260;97927;-77
2023/01/12 12:38:32;;;;;;;17.20;9.40;;;;;;;9.02;94.63;100482.77;105062;1272;102131;-78
2023/01/12 12:45:16;;;;;;;19.20;12.30;;;;;;;8.97;94.30;100491.00;105026;1262;98039;-78
2023/01/12 12:48:20;;;;;;;15.70;11.30;;;;;;;8.95;94.14;100483.23;105064;1257;98050;-75
2023/01/12 12:51:10;;;;;;;19.60;13.70;;;;;;;8.94;94.25;100475.86;104953;1260;98507;-73
2023/01/12 12:53:57;;;;;;;14.80;9.20;;;;;;;8.93;94.26;100469.69;105143;1264;102331;-74
2023/01/12 12:56:44;;;;;;;19.60;12.40;;;;;;;8.94;94.52;100468.75;105022;1263;100489;-75
2023/01/12 12:59:30;;;;;;;16.40;9.70;;;;;;;8.94;94.14;100467.36;105559;1257;97997;-77
2023/01/12 13:02:38;;;;;;;14.80;9.90;;;;;;;8.91;93.53;100463.57;105084;1261;97964;-77
2023/01/12 13:05:40;;;;;;;19.20;12.00;;;;;;;8.90;93.46;100457.66;105120;1264;98423;-76
2023/01/12 13:08:33;;;;;;;12.00;8.40;;;;;;;8.89;93.32;100449.92;105070;1263;103541;-75
2023/01/12 13:11:19;;;;;;;14.90;7.90;;;;;;;8.88;93.39;100452.36;104997;1264;99843;-75
2023/01/12 13:14:17;;;;;;;23.70;21.00;;;;;;;8.87;93.41;100454.08;105032;1261;98835;-75